Choctaw, Arkansas
Current Conditions -  °F | °C
As of 10:53 PM on Friday 24 Oct 2014 (Local Time) from KRUE Reporting Station
Haze Haze  
Wind Chill: 60°   Ceiling: Unl
Heat Index: 60°   Visibility: 6mi
Dew Point: 58°   Wind: 0mph
Humidity: 93%   Direction: NA
Pressure: 30.09"   Gusts: NA
Location:  35.53°N, 92.44°W
Report Text: KRUE 250353Z AUTO 00000KT 6SM BR CLR 16/14 A3009 RMK AO2 SLP184 T01560144
Loading
Personal Weather Stations






























Interactive Weather Map New forecast layout! Learn more

10-Day Weather Forecast

Advertisements
Track Severe Weather on mobile